sensor_id;sensor_type;location;lat;lon;timestamp;P1;durP1;ratioP1;P2;durP2;ratioP2
5646;SDS011;2845;48.626;9.362;2023-11-21T00:00:29;4.15;;;0.68;;
5646;SDS011;2845;48.626;9.362;2023-11-21T00:03:03;1.13;;;0.52;;
5646;SDS011;2845;48.626;9.362;2023-11-21T00:05:39;2.45;;;0.82;;
5646;SDS011;2845;48.626;9.362;2023-11-21T00:08:14;3.83;;;0.80;;
5646;SDS011;2845;48.626;9.362;2023-11-21T00:10:48;2.85;;;0.63;;
5646;SDS011;2845;48.626;9.362;2023-11-21T00:13:23;3.83;;;0.65;;
5646;SDS011;2845;48.626;9.362;2023-11-21T00:15:59;2.15;;;0.55;;
5646;SDS011;2845;48.626;9.362;2023-11-21T00:18:34;1.27;;;0.52;;
5646;SDS011;2845;48.626;9.362;2023-11-21T00:21:08;2.17;;;0.75;;
5646;SDS011;2845;48.626;9.362;2023-11-21T00:23:45;3.08;;;0.60;;
5646;SDS011;2845;48.626;9.362;2023-11-21T00:26:20;2.50;;;0.43;;
5646;SDS011;2845;48.626;9.362;2023-11-21T00:28:54;1.40;;;0.57;;
5646;SDS011;2845;48.626;9.362;2023-11-21T00:31:30;1.88;;;0.60;;
5646;SDS011;2845;48.626;9.362;2023-11-21T00:34:04;2.33;;;0.40;;
5646;SDS011;2845;48.626;9.362;2023-11-21T00:36:39;2.50;;;0.60;;
5646;SDS011;2845;48.626;9.362;2023-11-21T00:39:14;1.90;;;0.70;;
5646;SDS011;2845;48.626;9.362;2023-11-21T00:41:48;2.53;;;0.55;;
5646;SDS011;2845;48.626;9.362;2023-11-21T00:44:22;2.53;;;0.70;;
5646;SDS011;2845;48.626;9.362;2023-11-21T00:46:58;2.58;;;1.30;;
5646;SDS011;2845;48.626;9.362;2023-11-21T00:49:32;4.40;;;1.30;;
5646;SDS011;2845;48.626;9.362;2023-11-21T00:52:06;2.88;;;1.08;;
5646;SDS011;2845;48.626;9.362;2023-11-21T00:54:41;2.20;;;0.88;;
5646;SDS011;2845;48.626;9.362;2023-11-21T00:57:16;4.60;;;0.85;;
5646;SDS011;2845;48.626;9.362;2023-11-21T00:59:50;3.25;;;0.90;;
5646;SDS011;2845;48.626;9.362;2023-11-21T01:02:25;4.72;;;1.25;;
5646;SDS011;2845;48.626;9.362;2023-11-21T01:05:00;1.67;;;0.80;;
5646;SDS011;2845;48.626;9.362;2023-11-21T01:07:34;2.10;;;0.50;;
5646;SDS011;2845;48.626;9.362;2023-11-21T01:10:09;3.70;;;0.73;;
5646;SDS011;2845;48.626;9.362;2023-11-21T01:12:44;1.45;;;0.55;;
5646;SDS011;2845;48.626;9.362;2023-11-21T01:15:21;3.20;;;0.40;;
5646;SDS011;2845;48.626;9.362;2023-11-21T01:17:56;0.95;;;0.50;;
5646;SDS011;2845;48.626;9.362;2023-11-21T01:20:31;2.58;;;0.52;;
5646;SDS011;2845;48.626;9.362;2023-11-21T01:23:05;1.30;;;0.50;;
5646;SDS011;2845;48.626;9.362;2023-11-21T01:25:39;0.82;;;0.32;;
5646;SDS011;2845;48.626;9.362;2023-11-21T01:28:14;2.95;;;0.32;;
5646;SDS011;2845;48.626;9.362;2023-11-21T01:30:48;1.83;;;0.40;;
5646;SDS011;2845;48.626;9.362;2023-11-21T01:33:24;1.80;;;0.50;;
5646;SDS011;2845;48.626;9.362;2023-11-21T01:35:58;0.95;;;0.30;;
5646;SDS011;2845;48.626;9.362;2023-11-21T01:38:32;1.00;;;0.57;;
5646;SDS011;2845;48.626;9.362;2023-11-21T01:41:07;1.23;;;0.25;;
5646;SDS011;2845;48.626;9.362;2023-11-21T01:43:43;1.65;;;0.47;;
5646;SDS011;2845;48.626;9.362;2023-11-21T01:46:21;2.03;;;0.30;;
5646;SDS011;2845;48.626;9.362;2023-11-21T01:48:57;1.35;;;0.25;;
5646;SDS011;2845;48.626;9.362;2023-11-21T01:51:31;2.78;;;0.50;;
5646;SDS011;2845;48.626;9.362;2023-11-21T01:54:06;2.13;;;0.50;;
5646;SDS011;2845;48.626;9.362;2023-11-21T01:56:49;1.40;;;0.40;;
5646;SDS011;2845;48.626;9.362;2023-11-21T01:59:23;3.90;;;0.50;;
5646;SDS011;2845;48.626;9.362;2023-11-21T02:01:59;3.45;;;0.30;;
5646;SDS011;2845;48.626;9.362;2023-11-21T02:04:35;1.23;;;0.30;;
5646;SDS011;2845;48.626;9.362;2023-11-21T02:07:10;2.53;;;0.35;;
5646;SDS011;2845;48.626;9.362;2023-11-21T02:09:44;2.20;;;0.32;;
5646;SDS011;2845;48.626;9.362;2023-11-21T02:12:20;0.80;;;0.30;;
5646;SDS011;2845;48.626;9.362;2023-11-21T02:14:59;2.45;;;0.47;;
5646;SDS011;2845;48.626;9.362;2023-11-21T02:17:33;1.42;;;0.45;;
5646;SDS011;2845;48.626;9.362;2023-11-21T02:20:09;1.92;;;0.52;;
5646;SDS011;2845;48.626;9.362;2023-11-21T02:22:49;1.23;;;0.38;;
5646;SDS011;2845;48.626;9.362;2023-11-21T02:25:30;1.35;;;0.45;;
5646;SDS011;2845;48.626;9.362;2023-11-21T02:28:06;2.85;;;0.50;;
5646;SDS011;2845;48.626;9.362;2023-11-21T02:30:41;2.20;;;0.40;;
5646;SDS011;2845;48.626;9.362;2023-11-21T02:33:16;1.33;;;0.45;;
5646;SDS011;2845;48.626;9.362;2023-11-21T02:35:52;1.13;;;0.40;;
5646;SDS011;2845;48.626;9.362;2023-11-21T02:38:28;2.40;;;0.50;;
5646;SDS011;2845;48.626;9.362;2023-11-21T02:41:03;1.98;;;0.45;;
5646;SDS011;2845;48.626;9.362;2023-11-21T02:43:37;1.23;;;0.50;;
5646;SDS011;2845;48.626;9.362;2023-11-21T02:46:12;2.75;;;0.65;;
5646;SDS011;2845;48.626;9.362;2023-11-21T02:48:46;1.33;;;0.55;;
5646;SDS011;2845;48.626;9.362;2023-11-21T02:51:23;3.72;;;0.30;;
5646;SDS011;2845;48.626;9.362;2023-11-21T02:53:58;1.98;;;0.30;;
5646;SDS011;2845;48.626;9.362;2023-11-21T02:56:35;2.47;;;0.50;;
5646;SDS011;2845;48.626;9.362;2023-11-21T02:59:10;1.88;;;0.40;;
5646;SDS011;2845;48.626;9.362;2023-11-21T03:01:44;0.65;;;0.30;;
5646;SDS011;2845;48.626;9.362;2023-11-21T03:04:19;0.80;;;0.40;;
5646;SDS011;2845;48.626;9.362;2023-11-21T03:06:53;1.05;;;0.30;;
5646;SDS011;2845;48.626;9.362;2023-11-21T03:09:29;1.77;;;0.30;;
5646;SDS011;2845;48.626;9.362;2023-11-21T03:12:03;1.40;;;0.40;;
5646;SDS011;2845;48.626;9.362;2023-11-21T03:14:39;1.25;;;0.40;;
5646;SDS011;2845;48.626;9.362;2023-11-21T03:17:13;0.95;;;0.43;;
5646;SDS011;2845;48.626;9.362;2023-11-21T03:19:48;0.85;;;0.40;;
5646;SDS011;2845;48.626;9.362;2023-11-21T03:22:22;1.60;;;0.60;;
5646;SDS011;2845;48.626;9.362;2023-11-21T03:24:58;1.60;;;0.60;;
5646;SDS011;2845;48.626;9.362;2023-11-21T03:27:32;1.85;;;0.40;;
5646;SDS011;2845;48.626;9.362;2023-11-21T03:30:07;1.30;;;0.40;;
5646;SDS011;2845;48.626;9.362;2023-11-21T03:32:44;1.33;;;0.60;;
5646;SDS011;2845;48.626;9.362;2023-11-21T03:35:21;2.60;;;0.47;;
5646;SDS011;2845;48.626;9.362;2023-11-21T03:37:56;2.35;;;0.20;;
5646;SDS011;2845;48.626;9.362;2023-11-21T03:40:32;0.40;;;0.30;;
5646;SDS011;2845;48.626;9.362;2023-11-21T03:43:06;0.63;;;0.20;;
5646;SDS011;2845;48.626;9.362;2023-11-21T03:45:41;0.50;;;0.20;;
5646;SDS011;2845;48.626;9.362;2023-11-21T03:48:15;1.08;;;0.20;;
5646;SDS011;2845;48.626;9.362;2023-11-21T03:50:50;0.50;;;0.22;;
5646;SDS011;2845;48.626;9.362;2023-11-21T03:53:24;0.40;;;0.10;;
5646;SDS011;2845;48.626;9.362;2023-11-21T03:55:59;0.73;;;0.20;;
5646;SDS011;2845;48.626;9.362;2023-11-21T03:58:36;0.30;;;0.10;;
5646;SDS011;2845;48.626;9.362;2023-11-21T04:01:10;0.70;;;0.17;;
5646;SDS011;2845;48.626;9.362;2023-11-21T04:03:44;0.10;;;0.10;;
5646;SDS011;2845;48.626;9.362;2023-11-21T04:06:19;0.28;;;0.20;;
5646;SDS011;2845;48.626;9.362;2023-11-21T04:08:53;0.32;;;0.10;;
5646;SDS011;2845;48.626;9.362;2023-11-21T04:11:29;0.68;;;0.22;;
5646;SDS011;2845;48.626;9.362;2023-11-21T04:14:03;0.70;;;0.10;;
5646;SDS011;2845;48.626;9.362;2023-11-21T04:16:37;0.20;;;0.20;;
5646;SDS011;2845;48.626;9.362;2023-11-21T04:19:12;2.53;;;0.20;;
5646;SDS011;2845;48.626;9.362;2023-11-21T04:21:48;0.50;;;0.20;;
5646;SDS011;2845;48.626;9.362;2023-11-21T04:24:23;0.63;;;0.15;;
5646;SDS011;2845;48.626;9.362;2023-11-21T04:26:59;1.55;;;0.30;;
5646;SDS011;2845;48.626;9.362;2023-11-21T04:29:35;1.30;;;0.10;;
5646;SDS011;2845;48.626;9.362;2023-11-21T04:32:09;0.63;;;0.20;;
5646;SDS011;2845;48.626;9.362;2023-11-21T04:34:44;0.20;;;0.10;;
5646;SDS011;2845;48.626;9.362;2023-11-21T04:37:20;0.55;;;0.20;;
5646;SDS011;2845;48.626;9.362;2023-11-21T04:39:55;1.13;;;0.30;;
5646;SDS011;2845;48.626;9.362;2023-11-21T04:42:31;1.83;;;0.25;;
5646;SDS011;2845;48.626;9.362;2023-11-21T04:45:08;0.30;;;0.20;;
5646;SDS011;2845;48.626;9.362;2023-11-21T04:47:45;0.45;;;0.20;;
5646;SDS011;2845;48.626;9.362;2023-11-21T04:50:19;1.75;;;0.57;;
5646;SDS011;2845;48.626;9.362;2023-11-21T04:52:53;0.30;;;0.20;;
5646;SDS011;2845;48.626;9.362;2023-11-21T04:55:28;0.20;;;0.10;;
5646;SDS011;2845;48.626;9.362;2023-11-21T04:58:04;0.40;;;0.20;;
5646;SDS011;2845;48.626;9.362;2023-11-21T05:00:38;1.05;;;0.30;;
5646;SDS011;2845;48.626;9.362;2023-11-21T05:03:13;0.32;;;0.10;;
5646;SDS011;2845;48.626;9.362;2023-11-21T05:05:47;0.35;;;0.20;;
5646;SDS011;2845;48.626;9.362;2023-11-21T05:08:22;0.52;;;0.15;;
5646;SDS011;2845;48.626;9.362;2023-11-21T05:10:56;0.75;;;0.10;;
5646;SDS011;2845;48.626;9.362;2023-11-21T05:13:31;0.28;;;0.10;;
5646;SDS011;2845;48.626;9.362;2023-11-21T05:16:08;0.95;;;0.30;;
5646;SDS011;2845;48.626;9.362;2023-11-21T05:18:42;0.20;;;0.10;;
5646;SDS011;2845;48.626;9.362;2023-11-21T05:21:17;0.08;;;0.08;;
5646;SDS011;2845;48.626;9.362;2023-11-21T05:23:53;0.43;;;0.10;;
5646;SDS011;2845;48.626;9.362;2023-11-21T05:26:27;0.68;;;0.10;;
5646;SDS011;2845;48.626;9.362;2023-11-21T05:29:02;0.00;;;0.00;;
5646;SDS011;2845;48.626;9.362;2023-11-21T05:31:37;0.28;;;0.10;;
5646;SDS011;2845;48.626;9.362;2023-11-21T05:34:12;0.20;;;0.10;;
5646;SDS011;2845;48.626;9.362;2023-11-21T05:36:50;0.85;;;0.28;;
5646;SDS011;2845;48.626;9.362;2023-11-21T05:39:24;0.75;;;0.10;;
5646;SDS011;2845;48.626;9.362;2023-11-21T05:42:00;0.50;;;0.10;;
5646;SDS011;2845;48.626;9.362;2023-11-21T05:44:36;0.10;;;0.05;;
5646;SDS011;2845;48.626;9.362;2023-11-21T05:47:11;0.10;;;0.10;;
5646;SDS011;2845;48.626;9.362;2023-11-21T05:49:47;0.25;;;0.10;;
5646;SDS011;2845;48.626;9.362;2023-11-21T05:52:24;0.15;;;0.10;;
5646;SDS011;2845;48.626;9.362;2023-11-21T05:54:58;0.68;;;0.30;;
5646;SDS011;2845;48.626;9.362;2023-11-21T05:57:33;0.20;;;0.10;;
5646;SDS011;2845;48.626;9.362;2023-11-21T06:00:11;0.13;;;0.10;;
5646;SDS011;2845;48.626;9.362;2023-11-21T06:02:53;0.60;;;0.10;;
5646;SDS011;2845;48.626;9.362;2023-11-21T06:05:28;0.38;;;0.15;;
5646;SDS011;2845;48.626;9.362;2023-11-21T06:08:04;0.30;;;0.20;;
5646;SDS011;2845;48.626;9.362;2023-11-21T06:10:39;0.20;;;0.10;;
5646;SDS011;2845;48.626;9.362;2023-11-21T06:13:14;0.10;;;0.10;;
5646;SDS011;2845;48.626;9.362;2023-11-21T06:15:50;0.95;;;0.10;;
5646;SDS011;2845;48.626;9.362;2023-11-21T06:18:27;0.30;;;0.10;;
5646;SDS011;2845;48.626;9.362;2023-11-21T06:21:01;0.22;;;0.10;;
5646;SDS011;2845;48.626;9.362;2023-11-21T06:23:36;0.90;;;0.40;;
5646;SDS011;2845;48.626;9.362;2023-11-21T06:26:11;0.73;;;0.20;;
5646;SDS011;2845;48.626;9.362;2023-11-21T06:28:46;0.65;;;0.20;;
5646;SDS011;2845;48.626;9.362;2023-11-21T06:31:22;0.68;;;0.35;;
5646;SDS011;2845;48.626;9.362;2023-11-21T06:33:56;0.55;;;0.10;;
5646;SDS011;2845;48.626;9.362;2023-11-21T06:36:32;1.30;;;0.10;;
5646;SDS011;2845;48.626;9.362;2023-11-21T06:39:06;0.30;;;0.20;;
5646;SDS011;2845;48.626;9.362;2023-11-21T06:41:41;0.55;;;0.20;;
5646;SDS011;2845;48.626;9.362;2023-11-21T06:44:15;0.85;;;0.28;;
5646;SDS011;2845;48.626;9.362;2023-11-21T06:46:53;0.80;;;0.30;;
5646;SDS011;2845;48.626;9.362;2023-11-21T06:49:27;2.47;;;0.50;;
5646;SDS011;2845;48.626;9.362;2023-11-21T06:52:03;0.25;;;0.20;;
5646;SDS011;2845;48.626;9.362;2023-11-21T06:54:38;0.43;;;0.22;;
5646;SDS011;2845;48.626;9.362;2023-11-21T06:57:12;0.50;;;0.10;;
5646;SDS011;2845;48.626;9.362;2023-11-21T06:59:46;0.88;;;0.30;;
5646;SDS011;2845;48.626;9.362;2023-11-21T07:02:22;0.45;;;0.10;;
5646;SDS011;2845;48.626;9.362;2023-11-21T07:04:56;0.35;;;0.17;;
5646;SDS011;2845;48.626;9.362;2023-11-21T07:07:30;0.57;;;0.38;;
5646;SDS011;2845;48.626;9.362;2023-11-21T07:10:07;0.57;;;0.20;;
5646;SDS011;2845;48.626;9.362;2023-11-21T07:12:41;0.20;;;0.20;;
5646;SDS011;2845;48.626;9.362;2023-11-21T07:15:16;0.52;;;0.30;;
5646;SDS011;2845;48.626;9.362;2023-11-21T07:17:53;0.50;;;0.20;;
5646;SDS011;2845;48.626;9.362;2023-11-21T07:20:27;8.43;;;0.70;;
5646;SDS011;2845;48.626;9.362;2023-11-21T07:23:02;0.75;;;0.20;;
5646;SDS011;2845;48.626;9.362;2023-11-21T07:25:37;0.30;;;0.20;;
5646;SDS011;2845;48.626;9.362;2023-11-21T07:28:13;0.88;;;0.40;;
5646;SDS011;2845;48.626;9.362;2023-11-21T07:30:47;1.80;;;0.20;;
5646;SDS011;2845;48.626;9.362;2023-11-21T07:33:23;1.38;;;0.20;;
5646;SDS011;2845;48.626;9.362;2023-11-21T07:35:57;0.65;;;0.30;;
5646;SDS011;2845;48.626;9.362;2023-11-21T07:38:32;1.08;;;0.50;;
5646;SDS011;2845;48.626;9.362;2023-11-21T07:41:06;0.80;;;0.30;;
5646;SDS011;2845;48.626;9.362;2023-11-21T07:43:57;2.20;;;0.50;;
5646;SDS011;2845;48.626;9.362;2023-11-21T07:46:31;1.58;;;0.57;;
5646;SDS011;2845;48.626;9.362;2023-11-21T07:49:07;1.92;;;0.45;;
5646;SDS011;2845;48.626;9.362;2023-11-21T07:51:41;1.00;;;0.40;;
5646;SDS011;2845;48.626;9.362;2023-11-21T07:54:16;0.82;;;0.40;;
5646;SDS011;2845;48.626;9.362;2023-11-21T07:56:50;1.05;;;0.50;;
5646;SDS011;2845;48.626;9.362;2023-11-21T07:59:24;1.40;;;0.43;;
5646;SDS011;2845;48.626;9.362;2023-11-21T08:01:58;1.88;;;0.68;;
5646;SDS011;2845;48.626;9.362;2023-11-21T08:04:34;1.42;;;0.50;;
5646;SDS011;2845;48.626;9.362;2023-11-21T08:07:08;1.40;;;0.45;;
5646;SDS011;2845;48.626;9.362;2023-11-21T08:09:43;1.60;;;0.60;;
5646;SDS011;2845;48.626;9.362;2023-11-21T08:12:18;0.90;;;0.50;;
5646;SDS011;2845;48.626;9.362;2023-11-21T08:14:53;1.35;;;0.45;;
5646;SDS011;2845;48.626;9.362;2023-11-21T08:17:27;1.40;;;0.57;;
5646;SDS011;2845;48.626;9.362;2023-11-21T08:20:07;4.93;;;1.02;;
5646;SDS011;2845;48.626;9.362;2023-11-21T08:22:44;1.27;;;0.60;;
5646;SDS011;2845;48.626;9.362;2023-11-21T08:25:19;1.20;;;0.55;;
5646;SDS011;2845;48.626;9.362;2023-11-21T08:27:54;1.98;;;0.52;;
5646;SDS011;2845;48.626;9.362;2023-11-21T08:30:28;1.98;;;0.60;;
5646;SDS011;2845;48.626;9.362;2023-11-21T08:33:02;2.35;;;0.65;;
5646;SDS011;2845;48.626;9.362;2023-11-21T08:35:38;1.48;;;0.55;;
5646;SDS011;2845;48.626;9.362;2023-11-21T08:38:12;1.92;;;0.60;;
5646;SDS011;2845;48.626;9.362;2023-11-21T08:40:46;2.35;;;0.70;;
5646;SDS011;2845;48.626;9.362;2023-11-21T08:43:20;1.10;;;0.57;;
5646;SDS011;2845;48.626;9.362;2023-11-21T08:45:55;1.27;;;0.70;;
5646;SDS011;2845;48.626;9.362;2023-11-21T08:48:29;1.88;;;0.68;;
5646;SDS011;2845;48.626;9.362;2023-11-21T08:51:05;2.75;;;0.93;;
5646;SDS011;2845;48.626;9.362;2023-11-21T08:53:39;4.43;;;1.17;;
5646;SDS011;2845;48.626;9.362;2023-11-21T08:56:14;3.00;;;0.82;;
5646;SDS011;2845;48.626;9.362;2023-11-21T08:58:48;3.45;;;0.80;;
5646;SDS011;2845;48.626;9.362;2023-11-21T09:01:23;5.00;;;1.17;;
5646;SDS011;2845;48.626;9.362;2023-11-21T09:03:57;2.92;;;0.90;;
5646;SDS011;2845;48.626;9.362;2023-11-21T09:06:32;2.00;;;0.50;;
5646;SDS011;2845;48.626;9.362;2023-11-21T09:09:07;1.73;;;0.65;;
5646;SDS011;2845;48.626;9.362;2023-11-21T09:11:42;1.67;;;0.50;;
5646;SDS011;2845;48.626;9.362;2023-11-21T09:14:18;1.85;;;0.50;;
5646;SDS011;2845;48.626;9.362;2023-11-21T09:16:52;1.38;;;0.40;;
5646;SDS011;2845;48.626;9.362;2023-11-21T09:19:26;0.90;;;0.40;;
5646;SDS011;2845;48.626;9.362;2023-11-21T09:22:01;1.25;;;0.45;;
5646;SDS011;2845;48.626;9.362;2023-11-21T09:24:37;0.90;;;0.40;;
5646;SDS011;2845;48.626;9.362;2023-11-21T09:27:11;0.60;;;0.40;;
5646;SDS011;2845;48.626;9.362;2023-11-21T09:29:47;0.73;;;0.30;;
5646;SDS011;2845;48.626;9.362;2023-11-21T09:32:21;2.10;;;0.40;;
5646;SDS011;2845;48.626;9.362;2023-11-21T09:34:55;1.35;;;0.50;;
5646;SDS011;2845;48.626;9.362;2023-11-21T09:37:32;1.30;;;0.40;;
5646;SDS011;2845;48.626;9.362;2023-11-21T09:40:09;0.68;;;0.38;;
5646;SDS011;2845;48.626;9.362;2023-11-21T09:42:49;0.95;;;0.50;;
5646;SDS011;2845;48.626;9.362;2023-11-21T09:45:31;2.10;;;0.60;;
5646;SDS011;2845;48.626;9.362;2023-11-21T09:48:08;1.13;;;0.50;;
5646;SDS011;2845;48.626;9.362;2023-11-21T09:50:44;1.35;;;0.47;;
5646;SDS011;2845;48.626;9.362;2023-11-21T09:53:25;2.00;;;0.50;;
5646;SDS011;2845;48.626;9.362;2023-11-21T09:56:02;0.90;;;0.30;;
5646;SDS011;2845;48.626;9.362;2023-11-21T09:58:38;1.02;;;0.50;;
5646;SDS011;2845;48.626;9.362;2023-11-21T10:01:12;0.60;;;0.30;;
5646;SDS011;2845;48.626;9.362;2023-11-21T10:03:49;1.65;;;0.40;;
5646;SDS011;2845;48.626;9.362;2023-11-21T10:06:23;1.27;;;0.40;;
5646;SDS011;2845;48.626;9.362;2023-11-21T10:09:00;1.35;;;0.40;;
5646;SDS011;2845;48.626;9.362;2023-11-21T10:11:36;0.82;;;0.43;;
5646;SDS011;2845;48.626;9.362;2023-11-21T10:14:13;1.92;;;0.60;;
5646;SDS011;2845;48.626;9.362;2023-11-21T10:16:52;1.25;;;0.30;;
5646;SDS011;2845;48.626;9.362;2023-11-21T10:19:26;0.57;;;0.20;;
5646;SDS011;2845;48.626;9.362;2023-11-21T10:22:01;0.73;;;0.30;;
5646;SDS011;2845;48.626;9.362;2023-11-21T10:24:37;0.40;;;0.20;;
5646;SDS011;2845;48.626;9.362;2023-11-21T10:27:23;0.63;;;0.20;;
5646;SDS011;2845;48.626;9.362;2023-11-21T10:30:00;1.70;;;0.38;;
5646;SDS011;2845;48.626;9.362;2023-11-21T10:32:35;0.82;;;0.30;;
5646;SDS011;2845;48.626;9.362;2023-11-21T10:35:10;0.15;;;0.10;;
5646;SDS011;2845;48.626;9.362;2023-11-21T10:37:44;0.63;;;0.30;;
5646;SDS011;2845;48.626;9.362;2023-11-21T10:40:34;0.77;;;0.30;;
5646;SDS011;2845;48.626;9.362;2023-11-21T10:43:13;0.60;;;0.20;;
5646;SDS011;2845;48.626;9.362;2023-11-21T10:45:48;0.57;;;0.32;;
5646;SDS011;2845;48.626;9.362;2023-11-21T10:48:22;0.55;;;0.20;;
5646;SDS011;2845;48.626;9.362;2023-11-21T10:50:57;0.40;;;0.20;;
5646;SDS011;2845;48.626;9.362;2023-11-21T10:53:31;2.35;;;0.50;;
5646;SDS011;2845;48.626;9.362;2023-11-21T10:56:08;1.52;;;0.60;;
5646;SDS011;2845;48.626;9.362;2023-11-21T11:01:22;1.88;;;0.75;;
5646;SDS011;2845;48.626;9.362;2023-11-21T11:04:01;1.42;;;0.40;;
5646;SDS011;2845;48.626;9.362;2023-11-21T11:06:42;1.48;;;0.43;;
5646;SDS011;2845;48.626;9.362;2023-11-21T11:09:17;2.45;;;0.20;;
5646;SDS011;2845;48.626;9.362;2023-11-21T11:11:52;0.40;;;0.20;;
5646;SDS011;2845;48.626;9.362;2023-11-21T11:14:27;1.08;;;0.38;;
5646;SDS011;2845;48.626;9.362;2023-11-21T11:17:04;0.45;;;0.20;;
5646;SDS011;2845;48.626;9.362;2023-11-21T11:19:41;0.35;;;0.22;;
5646;SDS011;2845;48.626;9.362;2023-11-21T11:22:20;0.50;;;0.30;;
5646;SDS011;2845;48.626;9.362;2023-11-21T11:25:14;0.47;;;0.30;;
5646;SDS011;2845;48.626;9.362;2023-11-21T11:28:03;1.13;;;0.38;;
5646;SDS011;2845;48.626;9.362;2023-11-21T11:30:45;0.63;;;0.20;;
5646;SDS011;2845;48.626;9.362;2023-11-21T11:33:34;0.10;;;0.10;;
5646;SDS011;2845;48.626;9.362;2023-11-21T11:36:15;0.45;;;0.20;;
5646;SDS011;2845;48.626;9.362;2023-11-21T11:38:57;2.03;;;0.30;;
5646;SDS011;2845;48.626;9.362;2023-11-21T11:41:34;1.30;;;0.60;;
5646;SDS011;2845;48.626;9.362;2023-11-21T11:44:45;0.55;;;0.25;;
5646;SDS011;2845;48.626;9.362;2023-11-21T11:47:29;0.20;;;0.10;;
5646;SDS011;2845;48.626;9.362;2023-11-21T11:50:07;1.02;;;0.30;;
5646;SDS011;2845;48.626;9.362;2023-11-21T11:52:46;0.50;;;0.20;;
5646;SDS011;2845;48.626;9.362;2023-11-21T11:55:23;0.68;;;0.22;;
5646;SDS011;2845;48.626;9.362;2023-11-21T11:58:04;0.80;;;0.50;;
5646;SDS011;2845;48.626;9.362;2023-11-21T12:00:41;0.85;;;0.30;;
5646;SDS011;2845;48.626;9.362;2023-11-21T12:03:19;1.27;;;0.40;;
5646;SDS011;2845;48.626;9.362;2023-11-21T12:05:53;0.88;;;0.20;;
5646;SDS011;2845;48.626;9.362;2023-11-21T12:08:30;0.70;;;0.38;;
5646;SDS011;2845;48.626;9.362;2023-11-21T12:11:05;0.40;;;0.30;;
5646;SDS011;2845;48.626;9.362;2023-11-21T12:13:39;0.77;;;0.30;;
5646;SDS011;2845;48.626;9.362;2023-11-21T12:16:15;0.82;;;0.30;;
5646;SDS011;2845;48.626;9.362;2023-11-21T12:18:49;1.20;;;0.40;;
5646;SDS011;2845;48.626;9.362;2023-11-21T12:21:23;1.08;;;0.30;;
5646;SDS011;2845;48.626;9.362;2023-11-21T12:23:57;0.40;;;0.28;;
5646;SDS011;2845;48.626;9.362;2023-11-21T12:26:32;1.58;;;0.30;;
5646;SDS011;2845;48.626;9.362;2023-11-21T12:29:07;0.68;;;0.35;;
5646;SDS011;2845;48.626;9.362;2023-11-21T12:31:42;1.02;;;0.40;;
5646;SDS011;2845;48.626;9.362;2023-11-21T12:34:17;0.68;;;0.40;;
5646;SDS011;2845;48.626;9.362;2023-11-21T12:36:51;0.75;;;0.30;;
5646;SDS011;2845;48.626;9.362;2023-11-21T12:39:26;1.60;;;0.40;;
5646;SDS011;2845;48.626;9.362;2023-11-21T12:42:01;2.55;;;0.55;;
5646;SDS011;2845;48.626;9.362;2023-11-21T12:44:35;1.70;;;0.70;;
5646;SDS011;2845;48.626;9.362;2023-11-21T12:47:17;1.98;;;0.63;;
5646;SDS011;2845;48.626;9.362;2023-11-21T12:49:53;1.30;;;0.60;;
5646;SDS011;2845;48.626;9.362;2023-11-21T12:52:28;1.38;;;0.60;;
5646;SDS011;2845;48.626;9.362;2023-11-21T12:55:02;0.73;;;0.38;;
5646;SDS011;2845;48.626;9.362;2023-11-21T12:57:40;0.70;;;0.25;;
5646;SDS011;2845;48.626;9.362;2023-11-21T13:00:16;0.65;;;0.30;;
5646;SDS011;2845;48.626;9.362;2023-11-21T13:03:01;1.27;;;0.43;;
5646;SDS011;2845;48.626;9.362;2023-11-21T13:05:38;1.50;;;0.50;;
5646;SDS011;2845;48.626;9.362;2023-11-21T13:08:15;1.77;;;0.40;;
5646;SDS011;2845;48.626;9.362;2023-11-21T13:10:53;1.95;;;0.40;;
5646;SDS011;2845;48.626;9.362;2023-11-21T13:13:30;1.00;;;0.22;;
5646;SDS011;2845;48.626;9.362;2023-11-21T13:16:05;0.95;;;0.30;;
5646;SDS011;2845;48.626;9.362;2023-11-21T13:18:43;0.40;;;0.22;;
5646;SDS011;2845;48.626;9.362;2023-11-21T13:21:17;1.00;;;0.30;;
5646;SDS011;2845;48.626;9.362;2023-11-21T13:23:51;0.55;;;0.25;;
5646;SDS011;2845;48.626;9.362;2023-11-21T13:26:26;0.82;;;0.40;;
5646;SDS011;2845;48.626;9.362;2023-11-21T13:29:01;1.73;;;0.93;;
5646;SDS011;2845;48.626;9.362;2023-11-21T13:31:37;1.65;;;0.85;;
5646;SDS011;2845;48.626;9.362;2023-11-21T13:34:13;1.05;;;0.47;;
5646;SDS011;2845;48.626;9.362;2023-11-21T13:36:55;1.33;;;0.32;;
5646;SDS011;2845;48.626;9.362;2023-11-21T13:39:33;1.05;;;0.52;;
5646;SDS011;2845;48.626;9.362;2023-11-21T13:42:07;0.73;;;0.30;;
5646;SDS011;2845;48.626;9.362;2023-11-21T13:44:43;1.13;;;0.47;;
5646;SDS011;2845;48.626;9.362;2023-11-21T13:47:20;1.25;;;0.47;;
5646;SDS011;2845;48.626;9.362;2023-11-21T13:49:58;1.02;;;0.40;;
5646;SDS011;2845;48.626;9.362;2023-11-21T13:52:33;1.10;;;0.60;;
5646;SDS011;2845;48.626;9.362;2023-11-21T13:55:08;1.40;;;0.60;;
5646;SDS011;2845;48.626;9.362;2023-11-21T13:57:47;1.02;;;0.50;;
5646;SDS011;2845;48.626;9.362;2023-11-21T14:00:24;1.20;;;0.55;;
5646;SDS011;2845;48.626;9.362;2023-11-21T14:03:17;1.52;;;0.50;;
5646;SDS011;2845;48.626;9.362;2023-11-21T14:05:56;0.93;;;0.40;;
5646;SDS011;2845;48.626;9.362;2023-11-21T14:08:30;0.60;;;0.40;;
5646;SDS011;2845;48.626;9.362;2023-11-21T14:11:05;0.70;;;0.40;;
5646;SDS011;2845;48.626;9.362;2023-11-21T14:13:39;0.98;;;0.30;;
5646;SDS011;2845;48.626;9.362;2023-11-21T14:16:18;0.98;;;0.40;;
5646;SDS011;2845;48.626;9.362;2023-11-21T14:18:53;1.73;;;0.70;;
5646;SDS011;2845;48.626;9.362;2023-11-21T14:21:35;1.70;;;0.90;;
5646;SDS011;2845;48.626;9.362;2023-11-21T14:24:09;2.00;;;0.80;;
5646;SDS011;2845;48.626;9.362;2023-11-21T14:26:45;1.83;;;0.60;;
5646;SDS011;2845;48.626;9.362;2023-11-21T14:29:21;1.65;;;0.60;;
5646;SDS011;2845;48.626;9.362;2023-11-21T14:31:56;2.28;;;0.70;;
5646;SDS011;2845;48.626;9.362;2023-11-21T14:34:30;0.70;;;0.38;;
5646;SDS011;2845;48.626;9.362;2023-11-21T14:37:06;1.45;;;0.47;;
5646;SDS011;2845;48.626;9.362;2023-11-21T14:39:40;1.02;;;0.40;;
5646;SDS011;2845;48.626;9.362;2023-11-21T14:42:18;0.88;;;0.50;;
5646;SDS011;2845;48.626;9.362;2023-11-21T14:44:57;2.75;;;0.70;;
5646;SDS011;2845;48.626;9.362;2023-11-21T14:47:35;1.42;;;0.60;;
5646;SDS011;2845;48.626;9.362;2023-11-21T14:50:14;1.40;;;0.60;;
5646;SDS011;2845;48.626;9.362;2023-11-21T15:03:38;1.05;;;0.70;;
5646;SDS011;2845;48.626;9.362;2023-11-21T15:06:22;1.20;;;0.57;;
5646;SDS011;2845;48.626;9.362;2023-11-21T15:08:59;1.88;;;0.47;;
5646;SDS011;2845;48.626;9.362;2023-11-21T15:11:51;1.13;;;0.50;;
5646;SDS011;2845;48.626;9.362;2023-11-21T15:14:28;2.92;;;0.70;;
5646;SDS011;2845;48.626;9.362;2023-11-21T15:17:04;1.55;;;0.85;;
5646;SDS011;2845;48.626;9.362;2023-11-21T15:19:41;1.77;;;0.80;;
5646;SDS011;2845;48.626;9.362;2023-11-21T15:22:16;2.08;;;0.90;;
5646;SDS011;2845;48.626;9.362;2023-11-21T15:24:50;1.42;;;0.70;;
5646;SDS011;2845;48.626;9.362;2023-11-21T15:27:26;1.70;;;0.80;;
5646;SDS011;2845;48.626;9.362;2023-11-21T15:30:00;1.55;;;0.93;;
5646;SDS011;2845;48.626;9.362;2023-11-21T15:32:35;1.05;;;0.63;;
5646;SDS011;2845;48.626;9.362;2023-11-21T15:35:10;3.38;;;1.10;;
5646;SDS011;2845;48.626;9.362;2023-11-21T15:37:46;1.02;;;0.60;;
5646;SDS011;2845;48.626;9.362;2023-11-21T15:40:21;2.17;;;0.90;;
5646;SDS011;2845;48.626;9.362;2023-11-21T15:42:55;1.77;;;1.00;;
5646;SDS011;2845;48.626;9.362;2023-11-21T15:45:30;1.40;;;0.70;;
5646;SDS011;2845;48.626;9.362;2023-11-21T15:48:05;2.13;;;0.73;;
5646;SDS011;2845;48.626;9.362;2023-11-21T15:50:40;2.40;;;0.82;;
5646;SDS011;2845;48.626;9.362;2023-11-21T15:53:15;1.70;;;0.98;;
5646;SDS011;2845;48.626;9.362;2023-11-21T15:55:49;1.08;;;0.80;;
5646;SDS011;2845;48.626;9.362;2023-11-21T15:58:23;2.08;;;0.90;;
5646;SDS011;2845;48.626;9.362;2023-11-21T16:00:58;1.27;;;0.85;;
5646;SDS011;2845;48.626;9.362;2023-11-21T16:03:32;2.67;;;1.13;;
5646;SDS011;2845;48.626;9.362;2023-11-21T16:06:08;2.83;;;1.40;;
5646;SDS011;2845;48.626;9.362;2023-11-21T16:08:44;1.48;;;0.88;;
5646;SDS011;2845;48.626;9.362;2023-11-21T16:11:18;1.75;;;0.90;;
5646;SDS011;2845;48.626;9.362;2023-11-21T16:13:52;3.08;;;1.15;;
5646;SDS011;2845;48.626;9.362;2023-11-21T16:16:26;1.67;;;0.88;;
5646;SDS011;2845;48.626;9.362;2023-11-21T16:19:00;1.83;;;0.80;;
5646;SDS011;2845;48.626;9.362;2023-11-21T16:21:36;1.23;;;0.77;;